sensor_id;sensor_type;location;lat;lon;timestamp;pressure;altitude;pressure_sealevel;temperature;humidity
41218;BME280;26950;50.960;7.138;2022-08-03T00:00:48;100547.06;;;28.41;40.88
41218;BME280;26950;50.960;7.138;2022-08-03T00:03:15;100554.16;;;28.43;40.51
41218;BME280;26950;50.960;7.138;2022-08-03T00:05:41;100546.63;;;28.31;40.61
41218;BME280;26950;50.960;7.138;2022-08-03T00:08:08;100541.31;;;28.28;40.92
41218;BME280;26950;50.960;7.138;2022-08-03T00:10:36;100532.59;;;28.23;41.03
41218;BME280;26950;50.960;7.138;2022-08-03T00:13:02;100539.19;;;28.16;41.25
41218;BME280;26950;50.960;7.138;2022-08-03T00:15:29;100537.59;;;28.12;41.15
41218;BME280;26950;50.960;7.138;2022-08-03T00:17:55;100528.75;;;28.08;41.61
41218;BME280;26950;50.960;7.138;2022-08-03T00:20:22;100528.47;;;28.14;41.61
41218;BME280;26950;50.960;7.138;2022-08-03T00:22:49;100530.97;;;28.19;41.39
41218;BME280;26950;50.960;7.138;2022-08-03T00:25:16;100530.03;;;28.20;41.40
41218;BME280;26950;50.960;7.138;2022-08-03T00:27:44;100529.06;;;28.21;41.40
41218;BME280;26950;50.960;7.138;2022-08-03T00:30:11;100532.00;;;28.16;41.31
41218;BME280;26950;50.960;7.138;2022-08-03T00:32:37;100530.50;;;27.70;42.18
41218;BME280;26950;50.960;7.138;2022-08-03T00:35:05;100526.69;;;27.94;41.50
41218;BME280;26950;50.960;7.138;2022-08-03T00:37:32;100528.72;;;27.89;41.69
41218;BME280;26950;50.960;7.138;2022-08-03T00:39:58;100529.00;;;27.83;41.72
41218;BME280;26950;50.960;7.138;2022-08-03T00:42:25;100526.66;;;27.76;41.95
41218;BME280;26950;50.960;7.138;2022-08-03T00:44:53;100530.63;;;27.67;42.48
41218;BME280;26950;50.960;7.138;2022-08-03T00:47:19;100529.34;;;27.76;42.12
41218;BME280;26950;50.960;7.138;2022-08-03T00:49:46;100528.63;;;27.72;42.34
41218;BME280;26950;50.960;7.138;2022-08-03T00:52:12;100525.94;;;27.72;42.69
41218;BME280;26950;50.960;7.138;2022-08-03T00:54:40;100528.63;;;27.72;42.84
41218;BME280;26950;50.960;7.138;2022-08-03T00:57:07;100530.66;;;27.65;43.04
41218;BME280;26950;50.960;7.138;2022-08-03T00:59:34;100529.75;;;27.66;42.93
41218;BME280;26950;50.960;7.138;2022-08-03T01:02:03;100517.13;;;27.67;43.11
41218;BME280;26950;50.960;7.138;2022-08-03T01:04:30;100533.28;;;27.68;42.80
41218;BME280;26950;50.960;7.138;2022-08-03T01:07:06;100530.84;;;27.40;43.19
41218;BME280;26950;50.960;7.138;2022-08-03T01:09:41;100532.03;;;27.55;42.72
41218;BME280;26950;50.960;7.138;2022-08-03T01:12:16;100529.53;;;27.51;43.18
41218;BME280;26950;50.960;7.138;2022-08-03T01:14:50;100523.88;;;27.36;43.46
41218;BME280;26950;50.960;7.138;2022-08-03T01:17:31;100526.66;;;27.33;43.17
41218;BME280;26950;50.960;7.138;2022-08-03T01:20:02;100530.31;;;27.32;43.67
41218;BME280;26950;50.960;7.138;2022-08-03T01:22:51;100534.28;;;27.24;43.51
41218;BME280;26950;50.960;7.138;2022-08-03T01:25:30;100525.72;;;27.14;43.87
41218;BME280;26950;50.960;7.138;2022-08-03T01:28:13;100525.84;;;27.11;43.89
41218;BME280;26950;50.960;7.138;2022-08-03T01:30:45;100521.44;;;27.08;43.75
41218;BME280;26950;50.960;7.138;2022-08-03T01:33:16;100522.47;;;27.06;44.02
41218;BME280;26950;50.960;7.138;2022-08-03T01:35:46;100526.06;;;27.05;44.08
41218;BME280;26950;50.960;7.138;2022-08-03T01:38:17;100528.41;;;27.14;43.73
41218;BME280;26950;50.960;7.138;2022-08-03T01:40:47;100518.75;;;27.08;44.06
41218;BME280;26950;50.960;7.138;2022-08-03T01:43:18;100523.44;;;27.03;43.79
41218;BME280;26950;50.960;7.138;2022-08-03T01:45:47;100520.69;;;27.05;44.14
41218;BME280;26950;50.960;7.138;2022-08-03T01:48:15;100523.34;;;27.06;43.85
41218;BME280;26950;50.960;7.138;2022-08-03T01:50:44;100512.88;;;26.99;44.03
41218;BME280;26950;50.960;7.138;2022-08-03T01:53:13;100514.44;;;27.04;43.97
41218;BME280;26950;50.960;7.138;2022-08-03T01:55:42;100519.06;;;27.01;43.83
41218;BME280;26950;50.960;7.138;2022-08-03T01:58:09;100512.78;;;27.00;43.92
41218;BME280;26950;50.960;7.138;2022-08-03T02:00:38;100521.44;;;27.08;43.95
41218;BME280;26950;50.960;7.138;2022-08-03T02:03:08;100517.13;;;27.04;43.87
41218;BME280;26950;50.960;7.138;2022-08-03T02:05:38;100516.22;;;27.05;44.13
41218;BME280;26950;50.960;7.138;2022-08-03T02:08:07;100511.78;;;27.03;44.18
41218;BME280;26950;50.960;7.138;2022-08-03T02:10:36;100515.31;;;27.05;43.78
41218;BME280;26950;50.960;7.138;2022-08-03T02:13:06;100518.81;;;27.07;43.58
41218;BME280;26950;50.960;7.138;2022-08-03T02:15:36;100518.47;;;27.16;43.74
41218;BME280;26950;50.960;7.138;2022-08-03T02:18:05;100513.66;;;27.01;43.92
41218;BME280;26950;50.960;7.138;2022-08-03T02:20:36;100508.66;;;27.13;43.51
41218;BME280;26950;50.960;7.138;2022-08-03T02:23:03;100517.84;;;27.09;43.77
41218;BME280;26950;50.960;7.138;2022-08-03T02:25:31;100520.13;;;27.19;43.50
41218;BME280;26950;50.960;7.138;2022-08-03T02:28:01;100515.19;;;27.08;43.75
41218;BME280;26950;50.960;7.138;2022-08-03T02:30:34;100511.69;;;27.06;43.79
41218;BME280;26950;50.960;7.138;2022-08-03T02:33:04;100509.69;;;27.11;43.79
41218;BME280;26950;50.960;7.138;2022-08-03T02:35:31;100511.25;;;27.17;43.90
41218;BME280;26950;50.960;7.138;2022-08-03T02:38:02;100501.91;;;27.03;43.57
41218;BME280;26950;50.960;7.138;2022-08-03T02:40:31;100505.44;;;27.05;43.50
41218;BME280;26950;50.960;7.138;2022-08-03T02:42:59;100507.47;;;26.99;43.80
41218;BME280;26950;50.960;7.138;2022-08-03T02:45:28;100502.09;;;26.99;43.63
41218;BME280;26950;50.960;7.138;2022-08-03T02:47:58;100502.81;;;27.02;43.47
41218;BME280;26950;50.960;7.138;2022-08-03T02:50:27;100498.59;;;26.97;43.56
41218;BME280;26950;50.960;7.138;2022-08-03T02:52:55;100496.78;;;26.97;43.42
41218;BME280;26950;50.960;7.138;2022-08-03T02:55:25;100501.59;;;26.89;43.71
41218;BME280;26950;50.960;7.138;2022-08-03T02:57:53;100498.00;;;26.88;43.55
41218;BME280;26950;50.960;7.138;2022-08-03T03:00:21;100492.53;;;26.92;43.70
41218;BME280;26950;50.960;7.138;2022-08-03T03:02:49;100493.38;;;26.92;43.70
41218;BME280;26950;50.960;7.138;2022-08-03T03:05:17;100496.09;;;26.92;43.74
41218;BME280;26950;50.960;7.138;2022-08-03T03:07:44;100497.75;;;26.95;43.32
41218;BME280;26950;50.960;7.138;2022-08-03T03:10:11;100504.16;;;26.92;43.35
41218;BME280;26950;50.960;7.138;2022-08-03T03:12:40;100497.06;;;26.89;43.39
41218;BME280;26950;50.960;7.138;2022-08-03T03:15:08;100495.41;;;26.87;43.22
41218;BME280;26950;50.960;7.138;2022-08-03T03:17:36;100502.66;;;26.85;43.66
41218;BME280;26950;50.960;7.138;2022-08-03T03:20:05;100511.22;;;26.95;43.10
41218;BME280;26950;50.960;7.138;2022-08-03T03:22:33;100503.59;;;26.84;43.33
41218;BME280;26950;50.960;7.138;2022-08-03T03:25:00;100500.09;;;26.82;43.59
41218;BME280;26950;50.960;7.138;2022-08-03T03:27:28;100498.47;;;26.78;43.59
41218;BME280;26950;50.960;7.138;2022-08-03T03:29:56;100501.16;;;26.78;43.43
41218;BME280;26950;50.960;7.138;2022-08-03T03:32:23;100501.34;;;26.73;43.77
41218;BME280;26950;50.960;7.138;2022-08-03T03:34:49;100494.47;;;26.66;43.91
41218;BME280;26950;50.960;7.138;2022-08-03T03:37:16;100494.72;;;26.60;43.85
41218;BME280;26950;50.960;7.138;2022-08-03T03:39:42;100495.44;;;26.63;43.92
41218;BME280;26950;50.960;7.138;2022-08-03T03:42:09;100493.38;;;26.70;43.63
41218;BME280;26950;50.960;7.138;2022-08-03T03:44:36;100495.53;;;26.62;43.84
41218;BME280;26950;50.960;7.138;2022-08-03T03:47:04;100499.72;;;26.69;43.43
41218;BME280;26950;50.960;7.138;2022-08-03T03:49:31;100502.66;;;26.41;44.14
41218;BME280;26950;50.960;7.138;2022-08-03T03:51:57;100505.66;;;26.55;43.77
41218;BME280;26950;50.960;7.138;2022-08-03T03:54:24;100502.59;;;26.65;43.76
41218;BME280;26950;50.960;7.138;2022-08-03T03:56:50;100502.97;;;26.55;44.08
41218;BME280;26950;50.960;7.138;2022-08-03T03:59:17;100502.53;;;26.66;43.60
41218;BME280;26950;50.960;7.138;2022-08-03T04:01:43;100500.75;;;26.65;43.83
41218;BME280;26950;50.960;7.138;2022-08-03T04:04:12;100503.53;;;26.63;43.55
41218;BME280;26950;50.960;7.138;2022-08-03T04:06:56;100506.03;;;26.68;43.41
41218;BME280;26950;50.960;7.138;2022-08-03T04:09:45;100506.03;;;26.68;43.33
41218;BME280;26950;50.960;7.138;2022-08-03T04:12:30;100512.53;;;26.62;43.36
41218;BME280;26950;50.960;7.138;2022-08-03T04:14:58;100510.66;;;26.65;43.80
41218;BME280;26950;50.960;7.138;2022-08-03T04:17:27;100512.53;;;26.62;44.02
41218;BME280;26950;50.960;7.138;2022-08-03T04:19:56;100514.66;;;26.31;44.78
41218;BME280;26950;50.960;7.138;2022-08-03T04:22:28;100512.72;;;26.58;44.17
41218;BME280;26950;50.960;7.138;2022-08-03T04:25:00;100511.53;;;26.65;44.10
41218;BME280;26950;50.960;7.138;2022-08-03T04:27:33;100512.63;;;26.61;43.97
41218;BME280;26950;50.960;7.138;2022-08-03T04:30:03;100523.78;;;26.50;44.40
41218;BME280;26950;50.960;7.138;2022-08-03T04:32:30;100513.66;;;26.57;44.37
41218;BME280;26950;50.960;7.138;2022-08-03T04:34:58;100514.59;;;26.56;44.46
41218;BME280;26950;50.960;7.138;2022-08-03T04:37:32;100513.56;;;26.60;44.02
41218;BME280;26950;50.960;7.138;2022-08-03T04:40:02;100513.66;;;26.57;44.48
41218;BME280;26950;50.960;7.138;2022-08-03T04:42:32;100512.69;;;26.59;44.73
41218;BME280;26950;50.960;7.138;2022-08-03T04:44:59;100515.41;;;26.58;44.55
41218;BME280;26950;50.960;7.138;2022-08-03T04:47:29;100518.09;;;26.58;44.77
41218;BME280;26950;50.960;7.138;2022-08-03T04:49:59;100515.16;;;26.64;44.61
41218;BME280;26950;50.960;7.138;2022-08-03T04:52:26;100515.53;;;26.55;45.07
41218;BME280;26950;50.960;7.138;2022-08-03T04:54:52;100519.19;;;26.54;44.37
41218;BME280;26950;50.960;7.138;2022-08-03T04:57:20;100523.69;;;26.53;44.52
41218;BME280;26950;50.960;7.138;2022-08-03T04:59:46;100509.16;;;26.57;44.51
41218;BME280;26950;50.960;7.138;2022-08-03T05:02:16;100520.78;;;26.58;44.98
41218;BME280;26950;50.960;7.138;2022-08-03T05:04:43;100516.88;;;26.67;44.83
41218;BME280;26950;50.960;7.138;2022-08-03T05:07:12;100528.63;;;26.64;44.92
41218;BME280;26950;50.960;7.138;2022-08-03T05:09:38;100522.88;;;26.73;44.34
41218;BME280;26950;50.960;7.138;2022-08-03T05:12:06;100529.47;;;26.66;44.83
41218;BME280;26950;50.960;7.138;2022-08-03T05:14:32;100524.72;;;26.73;44.97
41218;BME280;26950;50.960;7.138;2022-08-03T05:17:01;100519.09;;;26.77;44.66
41218;BME280;26950;50.960;7.138;2022-08-03T05:19:27;100520.56;;;26.86;44.50
41218;BME280;26950;50.960;7.138;2022-08-03T05:21:54;100523.09;;;26.91;44.84
41218;BME280;26950;50.960;7.138;2022-08-03T05:24:21;100524.94;;;26.88;45.11
41218;BME280;26950;50.960;7.138;2022-08-03T05:26:48;100530.69;;;27.01;45.01
41218;BME280;26950;50.960;7.138;2022-08-03T05:29:14;100536.09;;;27.01;44.89
41218;BME280;26950;50.960;7.138;2022-08-03T05:31:41;100540.78;;;26.96;44.78
41218;BME280;26950;50.960;7.138;2022-08-03T05:34:07;100541.34;;;27.04;44.93
41218;BME280;26950;50.960;7.138;2022-08-03T05:36:34;100534.13;;;27.06;44.59
41218;BME280;26950;50.960;7.138;2022-08-03T05:39:00;100538.44;;;27.10;44.92
41218;BME280;26950;50.960;7.138;2022-08-03T05:41:28;100527.59;;;27.12;44.70
41218;BME280;26950;50.960;7.138;2022-08-03T05:43:54;100525.97;;;27.08;45.11
41218;BME280;26950;50.960;7.138;2022-08-03T05:46:22;100542.47;;;26.99;44.94
41218;BME280;26950;50.960;7.138;2022-08-03T05:48:49;100537.91;;;27.01;45.16
41218;BME280;26950;50.960;7.138;2022-08-03T05:51:16;100540.44;;;27.05;45.25
41218;BME280;26950;50.960;7.138;2022-08-03T05:53:42;100536.72;;;27.08;45.23
41218;BME280;26950;50.960;7.138;2022-08-03T05:56:09;100543.84;;;27.10;45.50
41218;BME280;26950;50.960;7.138;2022-08-03T05:58:38;100540.13;;;27.13;45.59
41218;BME280;26950;50.960;7.138;2022-08-03T06:01:04;100535.34;;;27.20;45.35
41218;BME280;26950;50.960;7.138;2022-08-03T06:03:31;100544.06;;;27.04;45.86
41218;BME280;26950;50.960;7.138;2022-08-03T06:05:57;100547.69;;;27.25;45.07
41218;BME280;26950;50.960;7.138;2022-08-03T06:08:23;100548.22;;;27.33;44.91
41218;BME280;26950;50.960;7.138;2022-08-03T06:10:50;100548.22;;;27.33;44.66
41218;BME280;26950;50.960;7.138;2022-08-03T06:13:16;100551.75;;;27.35;44.22
41218;BME280;26950;50.960;7.138;2022-08-03T06:15:44;100548.91;;;27.38;43.88
41218;BME280;26950;50.960;7.138;2022-08-03T06:18:11;100550.22;;;27.50;44.14
41218;BME280;26950;50.960;7.138;2022-08-03T06:20:37;100554.59;;;27.53;42.73
41218;BME280;26950;50.960;7.138;2022-08-03T06:23:04;100550.97;;;27.54;42.94
41218;BME280;26950;50.960;7.138;2022-08-03T06:25:30;100545.78;;;27.49;42.48
41218;BME280;26950;50.960;7.138;2022-08-03T06:27:57;100550.56;;;27.42;41.98
41218;BME280;26950;50.960;7.138;2022-08-03T06:30:24;100553.78;;;27.51;41.95
41218;BME280;26950;50.960;7.138;2022-08-03T06:32:52;100553.94;;;27.68;41.48
41218;BME280;26950;50.960;7.138;2022-08-03T06:35:19;100555.03;;;27.84;42.10
41218;BME280;26950;50.960;7.138;2022-08-03T06:37:47;100551.94;;;27.73;41.63
41218;BME280;26950;50.960;7.138;2022-08-03T06:40:15;100560.28;;;27.67;41.52
41218;BME280;26950;50.960;7.138;2022-08-03T06:42:43;100554.31;;;27.59;41.62
41218;BME280;26950;50.960;7.138;2022-08-03T06:45:10;100559.22;;;27.71;41.55
41218;BME280;26950;50.960;7.138;2022-08-03T06:47:37;100548.63;;;27.87;40.98
41218;BME280;26950;50.960;7.138;2022-08-03T06:50:06;100549.91;;;27.78;40.82
41218;BME280;26950;50.960;7.138;2022-08-03T06:52:34;100548.97;;;27.79;41.29
41218;BME280;26950;50.960;7.138;2022-08-03T06:55:01;100556.88;;;28.03;40.98
41218;BME280;26950;50.960;7.138;2022-08-03T06:57:27;100559.69;;;28.20;40.91
41218;BME280;26950;50.960;7.138;2022-08-03T06:59:53;100558.53;;;28.26;40.60
41218;BME280;26950;50.960;7.138;2022-08-03T07:02:25;100551.09;;;28.12;41.20
41218;BME280;26950;50.960;7.138;2022-08-03T07:04:52;100551.53;;;28.42;40.63
41218;BME280;26950;50.960;7.138;2022-08-03T07:07:19;100555.72;;;28.29;40.25
41218;BME280;26950;50.960;7.138;2022-08-03T07:09:46;100554.78;;;28.30;40.46
41218;BME280;26950;50.960;7.138;2022-08-03T07:12:13;100549.13;;;28.36;40.38
41218;BME280;26950;50.960;7.138;2022-08-03T07:14:39;100557.50;;;28.67;39.85
41218;BME280;26950;50.960;7.138;2022-08-03T07:17:05;100551.19;;;28.29;40.50
41218;BME280;26950;50.960;7.138;2022-08-03T07:19:32;100563.41;;;28.94;39.47
41218;BME280;26950;50.960;7.138;2022-08-03T07:21:58;100550.50;;;29.54;38.52
41218;BME280;26950;50.960;7.138;2022-08-03T07:24:26;100557.56;;;29.57;38.71
41218;BME280;26950;50.960;7.138;2022-08-03T07:26:53;100552.94;;;29.59;38.17
41218;BME280;26950;50.960;7.138;2022-08-03T07:29:19;100550.91;;;30.15;37.18
41218;BME280;26950;50.960;7.138;2022-08-03T07:31:46;100554.13;;;30.39;36.75
41218;BME280;26950;50.960;7.138;2022-08-03T07:34:12;100552.91;;;30.44;36.45
41218;BME280;26950;50.960;7.138;2022-08-03T07:36:39;100549.03;;;30.48;36.38
41218;BME280;26950;50.960;7.138;2022-08-03T07:39:05;100550.91;;;30.63;35.98
41218;BME280;26950;50.960;7.138;2022-08-03T07:41:33;100556.56;;;30.59;35.89
41218;BME280;26950;50.960;7.138;2022-08-03T07:43:59;100545.56;;;30.30;36.37
41218;BME280;26950;50.960;7.138;2022-08-03T07:46:26;100552.94;;;31.07;35.67
41218;BME280;26950;50.960;7.138;2022-08-03T07:48:52;100543.97;;;32.40;33.76
41218;BME280;26950;50.960;7.138;2022-08-03T07:51:19;100554.78;;;32.68;32.84
41218;BME280;26950;50.960;7.138;2022-08-03T07:53:45;100548.16;;;33.01;32.01
41218;BME280;26950;50.960;7.138;2022-08-03T07:56:12;100553.19;;;33.07;31.81
41218;BME280;26950;50.960;7.138;2022-08-03T07:58:39;100550.47;;;32.93;31.91
41218;BME280;26950;50.960;7.138;2022-08-03T08:01:06;100552.69;;;32.59;32.47
41218;BME280;26950;50.960;7.138;2022-08-03T08:03:32;100546.84;;;32.08;33.38
41218;BME280;26950;50.960;7.138;2022-08-03T08:05:59;100546.97;;;32.07;33.65
41218;BME280;26950;50.960;7.138;2022-08-03T08:08:25;100542.09;;;31.67;34.22
41218;BME280;26950;50.960;7.138;2022-08-03T08:10:51;100546.13;;;31.46;34.63
41218;BME280;26950;50.960;7.138;2022-08-03T08:13:18;100541.78;;;31.44;34.39
41218;BME280;26950;50.960;7.138;2022-08-03T08:15:46;100545.03;;;31.34;34.62
41218;BME280;26950;50.960;7.138;2022-08-03T08:18:12;100544.34;;;31.15;34.73
41218;BME280;26950;50.960;7.138;2022-08-03T08:20:38;100546.59;;;31.23;34.95
41218;BME280;26950;50.960;7.138;2022-08-03T08:23:08;100544.53;;;31.88;33.99
41218;BME280;26950;50.960;7.138;2022-08-03T08:25:34;100543.38;;;32.06;33.71
41218;BME280;26950;50.960;7.138;2022-08-03T08:28:01;100543.06;;;32.11;33.45
41218;BME280;26950;50.960;7.138;2022-08-03T08:30:31;100536.38;;;32.31;33.06
41218;BME280;26950;50.960;7.138;2022-08-03T08:32:59;100544.16;;;32.08;33.28
41218;BME280;26950;50.960;7.138;2022-08-03T08:35:26;100533.88;;;32.13;33.25
41218;BME280;26950;50.960;7.138;2022-08-03T08:37:52;100539.31;;;32.13;33.41
41218;BME280;26950;50.960;7.138;2022-08-03T08:40:20;100537.94;;;32.06;33.76
41218;BME280;26950;50.960;7.138;2022-08-03T08:42:47;100536.13;;;31.77;34.76
41218;BME280;26950;50.960;7.138;2022-08-03T08:45:13;100539.66;;;31.79;34.19
41218;BME280;26950;50.960;7.138;2022-08-03T08:47:43;100544.03;;;31.81;34.01
41218;BME280;26950;50.960;7.138;2022-08-03T08:50:13;100538.25;;;32.44;33.18
41218;BME280;26950;50.960;7.138;2022-08-03T08:52:42;100537.69;;;33.35;32.42
41218;BME280;26950;50.960;7.138;2022-08-03T08:55:12;100536.03;;;34.61;30.52
41218;BME280;26950;50.960;7.138;2022-08-03T08:57:44;100536.31;;;34.69;29.18
41218;BME280;26950;50.960;7.138;2022-08-03T09:00:12;100539.09;;;35.76;28.34
41218;BME280;26950;50.960;7.138;2022-08-03T09:02:40;100538.66;;;35.23;29.12
41218;BME280;26950;50.960;7.138;2022-08-03T09:05:09;100541.66;;;36.91;26.95
41218;BME280;26950;50.960;7.138;2022-08-03T09:07:38;100533.16;;;36.83;26.18
41218;BME280;26950;50.960;7.138;2022-08-03T09:10:06;100530.88;;;37.11;25.69
41218;BME280;26950;50.960;7.138;2022-08-03T09:12:36;100529.66;;;37.04;25.49
41218;BME280;26950;50.960;7.138;2022-08-03T09:15:16;100523.97;;;36.84;25.91
41218;BME280;26950;50.960;7.138;2022-08-03T09:17:42;100524.94;;;36.83;25.64
41218;BME280;26950;50.960;7.138;2022-08-03T09:20:10;100522.53;;;36.24;26.47
41218;BME280;26950;50.960;7.138;2022-08-03T09:22:50;100533.06;;;35.49;27.49
41218;BME280;26950;50.960;7.138;2022-08-03T09:25:17;100523.53;;;35.30;27.87
41218;BME280;26950;50.960;7.138;2022-08-03T09:27:44;100528.09;;;34.82;28.56
41218;BME280;26950;50.960;7.138;2022-08-03T09:30:12;100528.06;;;34.71;28.67
41218;BME280;26950;50.960;7.138;2022-08-03T09:32:39;100527.53;;;35.02;28.04
41218;BME280;26950;50.960;7.138;2022-08-03T09:35:07;100518.75;;;35.80;27.25
41218;BME280;26950;50.960;7.138;2022-08-03T09:37:33;100520.13;;;35.86;26.54
41218;BME280;26950;50.960;7.138;2022-08-03T09:40:01;100526.13;;;34.60;28.46
41218;BME280;26950;50.960;7.138;2022-08-03T09:42:28;100520.16;;;34.29;28.71
41218;BME280;26950;50.960;7.138;2022-08-03T09:44:55;100514.84;;;34.15;29.25
41218;BME280;26950;50.960;7.138;2022-08-03T09:47:27;100516.56;;;33.91;29.92
41218;BME280;26950;50.960;7.138;2022-08-03T09:49:57;100519.63;;;34.12;29.84
41218;BME280;26950;50.960;7.138;2022-08-03T09:52:30;100512.22;;;34.26;30.13
41218;BME280;26950;50.960;7.138;2022-08-03T09:54:59;100513.72;;;34.30;29.37
41218;BME280;26950;50.960;7.138;2022-08-03T09:57:27;100527.50;;;34.03;29.67
41218;BME280;26950;50.960;7.138;2022-08-03T10:00:06;100522.88;;;33.78;29.83
41218;BME280;26950;50.960;7.138;2022-08-03T10:02:35;100525.84;;;33.36;29.93
41218;BME280;26950;50.960;7.138;2022-08-03T10:05:02;100526.53;;;33.39;29.91
41218;BME280;26950;50.960;7.138;2022-08-03T10:07:28;100511.53;;;33.46;29.89
41218;BME280;26950;50.960;7.138;2022-08-03T10:09:56;100519.41;;;33.37;30.21
41218;BME280;26950;50.960;7.138;2022-08-03T10:12:23;100518.53;;;33.89;29.63
41218;BME280;26950;50.960;7.138;2022-08-03T10:14:52;100518.44;;;33.38;30.17
41218;BME280;26950;50.960;7.138;2022-08-03T10:17:19;100503.94;;;33.64;30.04
41218;BME280;26950;50.960;7.138;2022-08-03T10:19:46;100505.00;;;33.09;30.55
41218;BME280;26950;50.960;7.138;2022-08-03T10:22:14;100504.78;;;33.52;29.04
41218;BME280;26950;50.960;7.138;2022-08-03T10:24:49;100497.19;;;33.57;29.37
41218;BME280;26950;50.960;7.138;2022-08-03T10:27:18;100498.69;;;33.74;28.66
41218;BME280;26950;50.960;7.138;2022-08-03T10:29:49;100507.06;;;33.18;28.44
41218;BME280;26950;50.960;7.138;2022-08-03T10:32:21;100498.84;;;33.33;28.50
41218;BME280;26950;50.960;7.138;2022-08-03T10:34:50;100490.78;;;33.71;28.67
41218;BME280;26950;50.960;7.138;2022-08-03T10:37:19;100491.94;;;33.79;28.44
41218;BME280;26950;50.960;7.138;2022-08-03T10:39:50;100486.63;;;33.65;28.40
41218;BME280;26950;50.960;7.138;2022-08-03T10:42:22;100485.75;;;33.65;28.20
41218;BME280;26950;50.960;7.138;2022-08-03T10:44:54;100487.06;;;34.10;28.34
41218;BME280;26950;50.960;7.138;2022-08-03T10:47:23;100474.06;;;34.39;27.64
41218;BME280;26950;50.960;7.138;2022-08-03T10:49:50;100469.41;;;34.65;27.67
41218;BME280;26950;50.960;7.138;2022-08-03T10:52:17;100468.19;;;34.32;27.90
41218;BME280;26950;50.960;7.138;2022-08-03T10:54:44;100461.19;;;35.02;27.60
41218;BME280;26950;50.960;7.138;2022-08-03T10:57:43;100473.66;;;34.93;26.99
41218;BME280;26950;50.960;7.138;2022-08-03T11:00:10;100459.13;;;35.17;26.19
41218;BME280;26950;50.960;7.138;2022-08-03T11:03:06;100452.75;;;35.40;26.36
41218;BME280;26950;50.960;7.138;2022-08-03T11:05:37;100445.88;;;35.81;26.13
41218;BME280;26950;50.960;7.138;2022-08-03T11:08:27;100454.59;;;36.42;25.62
41218;BME280;26950;50.960;7.138;2022-08-03T11:10:56;100444.53;;;36.20;26.10
41218;BME280;26950;50.960;7.138;2022-08-03T11:13:25;100448.03;;;36.88;25.14
41218;BME280;26950;50.960;7.138;2022-08-03T11:15:57;100438.44;;;36.93;24.78
41218;BME280;26950;50.960;7.138;2022-08-03T11:18:25;100446.28;;;36.87;24.82
41218;BME280;26950;50.960;7.138;2022-08-03T11:20:53;100443.81;;;37.16;24.74
41218;BME280;26950;50.960;7.138;2022-08-03T11:23:38;100443.34;;;37.11;24.32
41218;BME280;26950;50.960;7.138;2022-08-03T11:26:13;100433.13;;;37.34;24.56
41218;BME280;26950;50.960;7.138;2022-08-03T11:28:41;100434.97;;;37.33;24.41
41218;BME280;26950;50.960;7.138;2022-08-03T11:31:42;100434.06;;;37.44;24.02
41218;BME280;26950;50.960;7.138;2022-08-03T11:34:11;100437.75;;;37.54;23.98
41218;BME280;26950;50.960;7.138;2022-08-03T11:39:38;100433.38;;;37.10;24.47
41218;BME280;26950;50.960;7.138;2022-08-03T11:42:42;100436.56;;;36.39;25.33
41218;BME280;26950;50.960;7.138;2022-08-03T11:45:13;100433.31;;;37.21;24.14
41218;BME280;26950;50.960;7.138;2022-08-03T11:47:40;100437.44;;;36.94;24.35
41218;BME280;26950;50.960;7.138;2022-08-03T11:50:09;100437.59;;;36.70;24.08
41218;BME280;26950;50.960;7.138;2022-08-03T11:52:39;100432.78;;;36.63;24.68
41218;BME280;26950;50.960;7.138;2022-08-03T11:55:14;100430.56;;;36.57;24.72
41218;BME280;26950;50.960;7.138;2022-08-03T11:57:43;100420.44;;;36.25;25.19
41218;BME280;26950;50.960;7.138;2022-08-03T12:00:28;100425.88;;;36.36;24.95
41218;BME280;26950;50.960;7.138;2022-08-03T12:02:56;100425.03;;;36.79;24.81
41218;BME280;26950;50.960;7.138;2022-08-03T12:05:39;100422.03;;;36.82;25.08
41218;BME280;26950;50.960;7.138;2022-08-03T12:08:06;100432.44;;;36.56;25.94
41218;BME280;26950;50.960;7.138;2022-08-03T12:10:34;100425.06;;;36.68;24.87
41218;BME280;26950;50.960;7.138;2022-08-03T12:13:03;100425.28;;;36.44;24.94
41218;BME280;26950;50.960;7.138;2022-08-03T12:15:33;100423.38;;;36.56;24.74
41218;BME280;26950;50.960;7.138;2022-08-03T12:18:00;100421.38;;;36.58;24.99
41218;BME280;26950;50.960;7.138;2022-08-03T12:20:29;100414.59;;;36.52;25.20
41218;BME280;26950;50.960;7.138;2022-08-03T12:23:02;100406.47;;;36.62;25.71
41218;BME280;26950;50.960;7.138;2022-08-03T12:25:29;100414.59;;;36.52;25.05
41218;BME280;26950;50.960;7.138;2022-08-03T12:28:05;100419.63;;;36.02;25.12
41218;BME280;26950;50.960;7.138;2022-08-03T12:30:32;100415.75;;;35.93;25.46
41218;BME280;26950;50.960;7.138;2022-08-03T12:33:11;100411.25;;;35.81;25.44
41218;BME280;26950;50.960;7.138;2022-08-03T12:35:37;100407.78;;;36.24;24.79
41218;BME280;26950;50.960;7.138;2022-08-03T12:38:05;100404.19;;;36.24;25.37
41218;BME280;26950;50.960;7.138;2022-08-03T12:40:31;100406.84;;;36.57;25.02
41218;BME280;26950;50.960;7.138;2022-08-03T12:42:58;100410.88;;;36.42;25.17
41218;BME280;26950;50.960;7.138;2022-08-03T12:45:25;100403.19;;;36.25;25.53
41218;BME280;26950;50.960;7.138;2022-08-03T12:47:54;100408.56;;;35.92;25.36
41218;BME280;26950;50.960;7.138;2022-08-03T12:50:26;100403.97;;;36.04;25.77
41218;BME280;26950;50.960;7.138;2022-08-03T12:52:53;100399.56;;;36.35;26.01
41218;BME280;26950;50.960;7.138;2022-08-03T12:55:21;100401.78;;;36.53;25.77
41218;BME280;26950;50.960;7.138;2022-08-03T12:57:48;100398.63;;;36.57;25.53
41218;BME280;26950;50.960;7.138;2022-08-03T13:00:16;100404.72;;;36.61;25.17
41218;BME280;26950;50.960;7.138;2022-08-03T13:02:43;100395.47;;;36.41;25.60